METAR Data
IDs: Format: Raw Decoded Include TAF

Data at: 1349 UTC 10 Aug 2022

KAAT 101255Z AUTO 10SM CLR 05/03 A3013 RMK AO2 SLP168 T00500028
KAAT 101155Z AUTO 10SM CLR 08/04 A3012 RMK AO2 SLP162 70001 T00830044 10183 20067 51002
KAAT 101055Z AUTO 10SM CLR 07/03 A3012 RMK AO2 SLP161 T00720033
KAAT 100955Z AUTO 10SM CLR 09/04 A3012 RMK AO2 SLP159 T00890039
KAAT 100855Z AUTO 10SM CLR 11/05 A3011 RMK AO2 SLP154 T01060050 50003
KAAT 100755Z AUTO 10SM CLR 13/06 A3012 RMK AO2 SLP160 T01280056 403110100
KAAT 100655Z AUTO 10SM CLR 16/06 A3011 RMK AO2 SLP151 T01560061
KAAT 100555Z AUTO 10SM CLR 18/07 A3010 RMK AO2 SLP146 T01830067 10294 20172 51021
KAAT 100455Z AUTO 10SM CLR 20/06 A3008 RMK AO2 SLP145 T02000061
KAAT 100355Z AUTO 10SM FEW085 23/07 A3005 RMK AO2 SLP133 T02280067
KAAT 100255Z AUTO 21009KT 10SM FEW120 26/06 A3003 RMK AO2 SLP123 T02610061 53003
KAAT 100155Z AUTO 12006KT 10SM BKN095 26/12 A3001 RMK AO2 SLP123 T02560122
KAAT 100055Z AUTO 22009KT 10SM OVC095 29/07 A3001 RMK AO2 SLP120 T02940067
KAAT 092355Z AUTO 10SM OVC100 28/07 A3002 RMK AO2 LTG DSNT SE SLP123 60001 T02830067 10311 20228 55003
KAAT 092255Z AUTO 27014G22KT 10SM BKN100 30/08 A3002 RMK AO2 LTG DSNT NE-SE SLP116 T03000083
KAAT 092216Z AUTO 09007G16KT 10SM BKN085 27/13 A3002 RMK AO2 LTG DSNT N-SE T02720133
KAAT 092155Z AUTO 00000KT 10SM VCTS OVC085 29/08 A3002 RMK AO2 LTG DSNT N AND SE SLP120 T02940083
KAAT 092143Z AUTO 20007G16KT 10SM OVC090 29/11 A3002 RMK AO2 LTG DSNT SE T02940106
KAAT 092128Z AUTO 16009G19KT 10SM VCTS BKN090 29/09 A3002 RMK AO2 T02940094
KAAT 092055Z AUTO 16017G25KT 10SM CLR 31/11 A3003 RMK AO2 SLP119 60001 T03060111 58020
KAAT 091955Z AUTO 17009KT 10SM FEW050 BKN080 OVC100 26/14 A3006 RMK AO2 RAE48 SLP135 P0001 T02560139
KAAT 091855Z AUTO 27004KT 10SM -RA FEW038 SCT070 BKN100 26/12 A3008 RMK AO2 RAB50 SLP138 P0000 T02610122
KAAT 091755Z AUTO 05003KT 10SM FEW100 26/11 A3010 RMK AO2 SLP142 T02560111 10256 20100 58002
KAAT 091655Z AUTO 06003KT 10SM BKN080 OVC095 21/10 A3011 RMK AO2 LTG DSNT NE SLP152 T02060100
KAAT 091640Z AUTO 10003KT 10SM OVC090 19/10 A3011 RMK AO2 LTG DSNT NE T01940100
KAAT 091625Z AUTO 11005KT 10SM VCTS OVC090 19/10 A3011 RMK AO2 LTG DSNT NE T01940100
KAAT 091555Z AUTO 00000KT 10SM BKN100 19/10 A3010 RMK AO2 SLP147 T01940100
KAAT 091455Z AUTO 00000KT 10SM CLR 17/09 A3011 RMK AO2 SLP149 T01720094 53005
KAAT 091355Z AUTO 00000KT 10SM CLR 13/09 A3010 RMK AO2 SLP153 T01280094
KAAT 091255Z AUTO 00000KT 10SM CLR 11/08 A3009 RMK AO2 SLP153 T01060078
KAAT 091155Z AUTO 00000KT 10SM CLR 12/08 A3009 RMK AO2 SLP151 70003 T01220083 10211 20117 58003
KAAT 091055Z AUTO 00000KT 10SM CLR 15/09 A3010 RMK AO2 SLP141 T01500094
KAAT 090955Z AUTO 00000KT 10SM CLR 13/09 A3010 RMK AO2 LTG DSNT W SLP143 T01330089
KAAT 090855Z AUTO 10004KT 10SM FEW100 16/10 A3010 RMK AO2 SLP138 T01610100 58003
KAAT 090755Z AUTO 00000KT 10SM BKN120 17/10 A3011 RMK AO2 SLP142 T01670100 403610111
KAAT 090655Z AUTO 11005KT 10SM FEW110 18/09 A3011 RMK AO2 SLP145 T01830094
KAAT 090555Z AUTO 29005KT 10SM FEW120 21/08 A3011 RMK AO2 TSB05E21 SLP142 60000 T02060078 10289 20206 50019
KAAT 090522Z AUTO 24010KT 10SM FEW065 SCT110 23/07 A3012 RMK AO2 LTG DSNT SW TSB05E21 T02280072
KAAT 090511Z AUTO 20004KT 10SM TS FEW065 FEW080 BKN110 23/10 A3011 RMK AO2 TSB05 T02280100
KAAT 090455Z AUTO 15012G17KT 10SM FEW100 23/12 A3012 RMK AO2 RAB10E19 SLP145 P0000 T02280117
KAAT 090355Z AUTO 24005KT 10SM FEW065 FEW090 BKN110 23/13 A3008 RMK AO2 LTG DSNT SE AND NW RAB31E41 SLP137 P0000 T02330133
KAAT 090255Z AUTO 00000KT 10SM FEW080 BKN110 26/13 A3005 RMK AO2 SLP127 60000 T02610128 56009
KAAT 090155Z AUTO 09006KT 10SM CLR 27/10 A3005 RMK AO2 RAE10 SLP132 P0000 T02720100